createdAt,value
2023-02-06T00:01:45.476Z,26.70
2023-02-06T00:04:16.163Z,32.10
2023-02-06T00:06:43.946Z,28.23
2023-02-06T00:09:11.043Z,30.90
2023-02-06T00:11:38.035Z,34.90
2023-02-06T00:14:05.912Z,32.87
2023-02-06T00:16:34.075Z,22.03
2023-02-06T00:19:01.402Z,27.77
2023-02-06T00:21:29.835Z,21.73
2023-02-06T00:23:58.804Z,24.07
2023-02-06T00:26:26.100Z,23.27
2023-02-06T00:28:53.214Z,39.00
2023-02-06T00:31:20.701Z,29.50
2023-02-06T00:33:47.915Z,27.70
2023-02-06T00:36:15.494Z,32.83
2023-02-06T00:38:42.528Z,28.47
2023-02-06T00:41:09.424Z,41.93
2023-02-06T00:43:36.735Z,28.53
2023-02-06T00:46:03.791Z,32.20
2023-02-06T00:48:30.820Z,30.10
2023-02-06T00:50:57.639Z,21.30
2023-02-06T00:53:24.762Z,30.10
2023-02-06T00:55:51.920Z,27.63
2023-02-06T00:58:19.144Z,29.50
2023-02-06T01:00:46.165Z,32.23
2023-02-06T01:03:13.113Z,28.50
2023-02-06T01:05:39.951Z,35.17
2023-02-06T01:08:06.837Z,31.47
2023-02-06T01:10:33.764Z,25.23
2023-02-06T01:13:00.973Z,30.63
2023-02-06T01:15:27.971Z,24.07
2023-02-06T01:17:54.760Z,38.53
2023-02-06T01:20:23.082Z,34.50
2023-02-06T01:22:49.987Z,29.57
2023-02-06T01:25:17.419Z,33.63
2023-02-06T01:27:44.417Z,27.70
2023-02-06T01:30:11.809Z,25.17
2023-02-06T01:32:40.490Z,31.13
2023-02-06T01:35:08.867Z,20.83
2023-02-06T01:37:36.748Z,33.97
2023-02-06T01:40:05.128Z,27.60
2023-02-06T01:42:35.820Z,30.33
2023-02-06T01:45:21.280Z,30.83
2023-02-06T01:47:49.423Z,31.53
2023-02-06T01:50:16.189Z,26.40
2023-02-06T01:52:43.220Z,24.87
2023-02-06T01:55:10.080Z,32.93
2023-02-06T01:57:37.064Z,26.37
2023-02-06T02:00:27.991Z,23.53
2023-02-06T02:02:54.772Z,35.30
2023-02-06T02:05:22.350Z,27.60
2023-02-06T02:08:01.584Z,45.17
2023-02-06T02:10:32.492Z,34.20
2023-02-06T02:12:59.578Z,32.60
2023-02-06T02:15:42.829Z,29.43
2023-02-06T02:18:09.634Z,26.83
2023-02-06T02:20:54.625Z,39.57
2023-02-06T02:23:33.810Z,33.17
2023-02-06T02:26:54.972Z,35.97
2023-02-06T02:29:52.925Z,22.63
2023-02-06T02:32:34.987Z,42.00
2023-02-06T02:35:19.217Z,29.97
2023-02-06T02:38:02.001Z,26.67
2023-02-06T02:41:05.911Z,22.27
2023-02-06T02:43:44.250Z,29.00
2023-02-06T02:46:26.369Z,27.33
2023-02-06T02:48:55.552Z,28.93
2023-02-06T02:51:23.287Z,30.13
2023-02-06T02:53:50.969Z,22.17
2023-02-06T02:56:20.868Z,27.33
2023-02-06T02:58:53.133Z,35.73
2023-02-06T03:01:24.011Z,42.17
2023-02-06T03:03:53.579Z,23.20
2023-02-06T03:06:23.866Z,28.23
2023-02-06T03:09:01.177Z,28.10
2023-02-06T03:11:28.515Z,34.30
2023-02-06T03:14:03.854Z,26.73
2023-02-06T03:16:38.723Z,37.53
2023-02-06T03:19:14.459Z,38.10
2023-02-06T03:21:42.006Z,32.40
2023-02-06T03:24:13.057Z,31.23
2023-02-06T03:26:40.367Z,33.10
2023-02-06T03:29:11.324Z,32.40
2023-02-06T03:31:47.774Z,32.70
2023-02-06T03:34:22.145Z,36.03
2023-02-06T03:36:50.144Z,24.90
2023-02-06T03:39:16.966Z,34.50
2023-02-06T03:41:44.721Z,38.93
2023-02-06T03:44:16.436Z,25.27
2023-02-06T03:46:44.427Z,29.20
2023-02-06T03:49:13.214Z,30.67
2023-02-06T03:51:47.847Z,25.90
2023-02-06T03:54:17.839Z,23.03
2023-02-06T03:57:01.593Z,24.93
2023-02-06T03:59:28.782Z,31.43
2023-02-06T04:01:58.500Z,31.23
2023-02-06T04:04:29.746Z,35.53
2023-02-06T04:07:03.206Z,41.23
2023-02-06T04:09:30.517Z,35.87
2023-02-06T04:11:57.225Z,33.07
2023-02-06T04:14:24.404Z,27.53
2023-02-06T04:16:51.631Z,23.53
2023-02-06T04:19:18.680Z,33.33
2023-02-06T04:21:45.942Z,30.33
2023-02-06T04:24:13.382Z,28.37
2023-02-06T04:26:40.764Z,28.77
2023-02-06T04:29:08.277Z,21.90
2023-02-06T04:31:35.254Z,28.03
2023-02-06T04:34:02.231Z,30.13
2023-02-06T04:36:28.991Z,32.13
2023-02-06T04:38:56.301Z,28.30
2023-02-06T04:41:23.130Z,30.80
2023-02-06T04:43:50.078Z,28.40
2023-02-06T04:46:16.815Z,34.07
2023-02-06T04:48:43.661Z,34.27
2023-02-06T04:51:10.563Z,40.30
2023-02-06T04:53:37.458Z,26.17
2023-02-06T04:56:10.125Z,30.47
2023-02-06T04:58:37.538Z,40.73
2023-02-06T05:01:04.755Z,35.80
2023-02-06T05:03:31.946Z,28.73
2023-02-06T05:06:04.718Z,32.27
2023-02-06T05:08:31.597Z,36.70
2023-02-06T05:10:58.407Z,41.70
2023-02-06T05:13:25.811Z,36.07
2023-02-06T05:15:53.073Z,48.97
2023-02-06T05:18:19.900Z,45.53
2023-02-06T05:20:46.826Z,40.10
2023-02-06T05:23:13.703Z,38.03
2023-02-06T05:25:42.275Z,47.20
2023-02-06T05:28:10.118Z,43.67
2023-02-06T05:30:37.321Z,52.10
2023-02-06T05:33:04.392Z,29.00
2023-02-06T05:35:31.967Z,34.13
2023-02-06T05:37:59.136Z,35.43
2023-02-06T05:40:26.165Z,35.33
2023-02-06T05:42:52.982Z,41.07
2023-02-06T05:45:19.775Z,42.63
2023-02-06T05:47:46.741Z,32.63
2023-02-06T05:50:13.666Z,38.57
2023-02-06T05:52:40.635Z,46.30
2023-02-06T05:55:08.020Z,48.83
2023-02-06T05:57:35.643Z,43.80
2023-02-06T06:00:04.219Z,38.90
2023-02-06T06:02:38.326Z,41.57
2023-02-06T06:05:05.506Z,42.03
2023-02-06T06:07:32.527Z,45.37
2023-02-06T06:09:59.319Z,50.00
2023-02-06T06:12:26.242Z,23.40
2023-02-06T06:14:53.694Z,30.10
2023-02-06T06:17:21.685Z,37.17
2023-02-06T06:19:48.942Z,30.93
2023-02-06T06:22:15.781Z,27.30
2023-02-06T06:24:42.502Z,38.63
2023-02-06T06:27:10.725Z,40.10
2023-02-06T06:29:37.821Z,30.70
2023-02-06T06:32:04.947Z,36.03
2023-02-06T06:34:31.932Z,36.70
2023-02-06T06:36:58.926Z,25.23
2023-02-06T06:39:25.693Z,37.63
2023-02-06T06:41:52.496Z,42.27
2023-02-06T06:44:19.272Z,39.90
2023-02-06T06:46:46.125Z,33.43
2023-02-06T06:49:12.897Z,28.23
2023-02-06T06:51:39.581Z,35.23
2023-02-06T06:54:07.125Z,39.47
2023-02-06T06:56:34.876Z,36.00
2023-02-06T06:59:01.650Z,36.27
2023-02-06T07:01:28.505Z,33.13
2023-02-06T07:03:55.527Z,35.47
2023-02-06T07:06:22.303Z,30.23
2023-02-06T07:08:49.656Z,31.97
2023-02-06T07:11:17.032Z,31.80
2023-02-06T07:13:44.524Z,29.00
2023-02-06T07:16:12.167Z,34.80
2023-02-06T07:18:39.927Z,36.13
2023-02-06T07:21:08.959Z,40.37
2023-02-06T07:23:38.792Z,39.73
2023-02-06T07:26:05.899Z,34.17
2023-02-06T07:28:33.526Z,40.03
2023-02-06T07:31:05.166Z,32.60
2023-02-06T07:33:32.857Z,30.20
2023-02-06T07:36:01.679Z,34.20
2023-02-06T07:38:31.695Z,44.50
2023-02-06T07:41:02.802Z,36.83
2023-02-06T07:43:31.045Z,29.37
2023-02-06T07:46:07.073Z,28.37
2023-02-06T07:48:33.910Z,40.27
2023-02-06T07:51:05.741Z,34.20
2023-02-06T07:53:32.864Z,30.93
2023-02-06T07:55:59.704Z,30.03
2023-02-06T07:58:26.743Z,25.63
2023-02-06T08:00:56.214Z,26.03
2023-02-06T08:03:23.745Z,35.00
2023-02-06T08:05:50.406Z,25.27
2023-02-06T08:08:17.105Z,20.07
2023-02-06T08:10:43.809Z,28.93
2023-02-06T08:13:10.963Z,21.93
2023-02-06T08:15:40.890Z,20.67
2023-02-06T08:18:08.151Z,19.37
2023-02-06T08:20:35.082Z,25.13
2023-02-06T08:23:01.858Z,26.00
2023-02-06T08:25:28.584Z,24.17
2023-02-06T08:27:55.969Z,21.00
2023-02-06T08:30:23.610Z,20.60
2023-02-06T08:32:50.518Z,17.40
2023-02-06T08:35:17.418Z,16.07
2023-02-06T08:37:44.196Z,14.93
2023-02-06T08:40:12.049Z,19.43
2023-02-06T08:42:38.850Z,23.23
2023-02-06T08:45:06.296Z,25.93
2023-02-06T08:47:33.352Z,21.23
2023-02-06T08:50:02.890Z,20.83
2023-02-06T08:52:30.360Z,30.70
2023-02-06T08:54:58.175Z,21.70
2023-02-06T08:57:25.089Z,29.30
2023-02-06T09:00:01.276Z,23.77
2023-02-06T09:02:40.877Z,27.90
2023-02-06T09:05:30.369Z,24.97
2023-02-06T09:08:01.494Z,25.20
2023-02-06T09:10:36.716Z,27.17
2023-02-06T09:13:07.373Z,28.53
2023-02-06T09:15:34.385Z,26.73
2023-02-06T09:18:01.443Z,29.70
2023-02-06T09:20:28.304Z,29.30
2023-02-06T09:22:55.176Z,30.67
2023-02-06T09:25:22.471Z,23.37
2023-02-06T09:27:49.610Z,33.43
2023-02-06T09:30:16.416Z,22.03
2023-02-06T09:32:43.430Z,30.13
2023-02-06T09:35:11.085Z,25.00
2023-02-06T09:37:38.039Z,33.57
2023-02-06T09:40:05.398Z,36.90
2023-02-06T09:42:37.864Z,35.90
2023-02-06T09:45:09.288Z,37.67
2023-02-06T09:47:39.704Z,27.97
2023-02-06T09:50:54.404Z,33.17
2023-02-06T09:53:26.218Z,28.23
2023-02-06T09:56:17.731Z,27.27
2023-02-06T09:58:54.522Z,29.13
2023-02-06T10:01:33.101Z,23.50
2023-02-06T10:04:18.413Z,23.90
2023-02-06T10:07:04.294Z,27.70
2023-02-06T10:10:00.295Z,30.17
2023-02-06T10:12:35.129Z,30.23
2023-02-06T10:15:07.081Z,21.93
2023-02-06T10:17:37.604Z,33.20
2023-02-06T10:20:07.478Z,24.80
2023-02-06T10:22:44.149Z,27.87
2023-02-06T10:25:57.465Z,32.23
2023-02-06T10:28:30.303Z,28.67
2023-02-06T10:31:39.080Z,22.13
2023-02-06T10:34:29.570Z,26.17
2023-02-06T10:36:56.458Z,19.63
2023-02-06T10:39:41.921Z,21.33
2023-02-06T10:42:36.207Z,17.53
2023-02-06T10:45:19.312Z,23.50
2023-02-06T10:47:55.564Z,25.93
2023-02-06T10:50:36.518Z,22.60
2023-02-06T10:53:19.282Z,20.70
2023-02-06T10:55:52.085Z,25.33
2023-02-06T10:58:40.484Z,26.20
2023-02-06T11:01:24.703Z,27.63
2023-02-06T11:03:58.624Z,19.53
2023-02-06T11:06:27.358Z,35.60
2023-02-06T11:08:54.208Z,24.80
2023-02-06T11:11:25.572Z,26.80
2023-02-06T11:14:06.713Z,26.10
2023-02-06T11:16:37.609Z,22.40
2023-02-06T11:19:20.362Z,27.83
2023-02-06T11:21:51.475Z,19.53
2023-02-06T11:24:21.266Z,23.13
2023-02-06T11:26:57.637Z,22.40
2023-02-06T11:29:37.359Z,24.47
2023-02-06T11:32:09.286Z,26.87
2023-02-06T11:34:51.226Z,20.20
2023-02-06T11:37:38.098Z,21.40
2023-02-06T11:40:17.416Z,19.27
2023-02-06T11:42:45.585Z,27.03
2023-02-06T11:45:39.631Z,25.53
2023-02-06T11:48:07.891Z,24.10
2023-02-06T11:50:37.053Z,16.80
2023-02-06T11:53:15.585Z,28.67
2023-02-06T11:55:43.385Z,23.87
2023-02-06T11:58:13.224Z,28.60
2023-02-06T12:00:42.077Z,31.17
2023-02-06T12:03:27.292Z,19.80
2023-02-06T12:05:57.875Z,22.93
2023-02-06T12:08:34.598Z,23.13
2023-02-06T12:11:03.736Z,26.13
2023-02-06T12:13:34.163Z,20.17
2023-02-06T12:16:02.768Z,21.90
2023-02-06T12:18:37.704Z,30.80
2023-02-06T12:21:14.990Z,24.87
2023-02-06T12:23:53.478Z,24.93
2023-02-06T12:26:23.302Z,22.10
2023-02-06T12:28:50.043Z,20.80
2023-02-06T12:31:21.899Z,20.57
2023-02-06T12:33:55.304Z,23.30
2023-02-06T12:36:34.852Z,27.67
2023-02-06T12:39:03.598Z,22.17
2023-02-06T12:41:52.294Z,17.23
2023-02-06T12:44:28.273Z,21.57
2023-02-06T12:47:06.176Z,17.60
2023-02-06T12:49:49.959Z,17.47
2023-02-06T12:52:31.165Z,26.00
2023-02-06T12:55:04.958Z,17.70
2023-02-06T12:57:32.182Z,21.43
2023-02-06T13:00:16.183Z,22.90
2023-02-06T13:03:20.944Z,23.90
2023-02-06T13:05:50.687Z,22.77
2023-02-06T13:08:49.788Z,19.30
2023-02-06T13:11:37.492Z,23.43
2023-02-06T13:14:23.780Z,17.40
2023-02-06T13:16:59.711Z,23.60
2023-02-06T13:19:37.496Z,19.13
2023-02-06T13:22:10.570Z,19.73
2023-02-06T13:24:38.517Z,16.57
2023-02-06T13:27:08.241Z,31.13
2023-02-06T13:29:37.622Z,15.83
2023-02-06T13:32:10.801Z,21.47
2023-02-06T13:34:41.387Z,24.83
2023-02-06T13:37:34.101Z,17.03
2023-02-06T13:40:22.927Z,25.13
2023-02-06T13:43:13.988Z,17.33
2023-02-06T13:45:44.943Z,21.63
2023-02-06T13:48:33.983Z,22.60
2023-02-06T13:51:31.084Z,29.57
2023-02-06T13:54:13.526Z,25.73
2023-02-06T13:56:44.954Z,17.63
2023-02-06T13:59:37.663Z,21.37
2023-02-06T14:02:30.131Z,21.43
2023-02-06T14:04:58.681Z,21.20
2023-02-06T14:08:05.787Z,17.83
2023-02-06T14:10:53.850Z,13.53
2023-02-06T14:13:31.168Z,24.00
2023-02-06T14:16:30.699Z,25.03
2023-02-06T14:18:57.421Z,21.47
2023-02-06T14:21:32.858Z,15.57
2023-02-06T14:23:59.533Z,18.90
2023-02-06T14:27:03.516Z,15.50
2023-02-06T14:29:39.411Z,27.87
2023-02-06T14:32:19.919Z,21.73
2023-02-06T14:34:49.724Z,18.03
2023-02-06T14:37:43.252Z,22.80
2023-02-06T14:40:22.865Z,22.87
2023-02-06T14:42:58.248Z,17.93
2023-02-06T14:45:40.932Z,20.23
2023-02-06T14:48:21.365Z,24.10
2023-02-06T14:50:51.285Z,18.00
2023-02-06T14:53:23.885Z,14.37
2023-02-06T14:55:51.717Z,15.20
2023-02-06T14:58:27.571Z,22.43
2023-02-06T15:01:11.711Z,13.77
2023-02-06T15:03:40.279Z,18.47
2023-02-06T15:06:11.007Z,19.37
2023-02-06T15:08:39.508Z,12.77
2023-02-06T15:11:19.006Z,12.60
2023-02-06T15:13:50.487Z,11.60
2023-02-06T15:16:18.033Z,13.77
2023-02-06T15:18:44.903Z,12.07
2023-02-06T15:21:15.895Z,9.73
2023-02-06T15:24:07.838Z,13.50
2023-02-06T15:26:49.890Z,18.13
2023-02-06T15:29:19.533Z,16.13
2023-02-06T15:31:51.338Z,17.03
2023-02-06T15:34:20.301Z,19.80
2023-02-06T15:36:47.443Z,17.97
2023-02-06T15:39:15.291Z,13.60
2023-02-06T15:41:44.894Z,13.67
2023-02-06T15:44:34.510Z,12.27
2023-02-06T15:47:04.252Z,19.70
2023-02-06T15:49:41.731Z,23.50
2023-02-06T15:52:10.090Z,14.63
2023-02-06T15:54:40.529Z,16.67
2023-02-06T15:57:22.101Z,12.43
2023-02-06T15:59:49.353Z,13.23
2023-02-06T16:02:21.988Z,15.23
2023-02-06T16:04:51.842Z,10.47
2023-02-06T16:07:21.400Z,14.30
2023-02-06T16:09:59.523Z,8.60
2023-02-06T16:12:26.500Z,17.57
2023-02-06T16:15:02.162Z,15.93
2023-02-06T16:17:35.663Z,15.20
2023-02-06T16:20:26.905Z,19.30
2023-02-06T16:22:57.268Z,12.43
2023-02-06T16:25:30.028Z,10.10
2023-02-06T16:27:57.057Z,16.37
2023-02-06T16:30:31.134Z,9.47
2023-02-06T16:33:19.836Z,15.27
2023-02-06T16:35:46.592Z,15.97
2023-02-06T16:38:13.385Z,17.87
2023-02-06T16:40:40.333Z,14.40
2023-02-06T16:43:11.413Z,11.47
2023-02-06T16:45:38.329Z,13.27
2023-02-06T16:48:11.677Z,21.67
2023-02-06T16:50:42.055Z,21.87
2023-02-06T16:53:25.689Z,11.27
2023-02-06T16:55:52.952Z,18.03
2023-02-06T16:58:23.089Z,18.73
2023-02-06T17:00:51.329Z,13.50
2023-02-06T17:03:18.150Z,9.30
2023-02-06T17:05:47.061Z,13.77
2023-02-06T17:08:19.461Z,19.77
2023-02-06T17:10:47.118Z,11.80
2023-02-06T17:13:21.905Z,19.83
2023-02-06T17:15:49.317Z,13.10
2023-02-06T17:18:18.079Z,13.93
2023-02-06T17:20:48.715Z,14.23
2023-02-06T17:23:16.097Z,15.13
2023-02-06T17:25:44.139Z,23.20
2023-02-06T17:28:16.975Z,13.13
2023-02-06T17:30:44.803Z,23.43
2023-02-06T17:33:11.658Z,11.20
2023-02-06T17:35:38.940Z,8.37
2023-02-06T17:38:07.486Z,12.97
2023-02-06T17:40:35.838Z,14.27
2023-02-06T17:43:04.777Z,12.13
2023-02-06T17:45:32.856Z,15.03
2023-02-06T17:48:00.338Z,15.23
2023-02-06T17:50:28.699Z,20.00
2023-02-06T17:52:56.219Z,12.80
2023-02-06T17:55:24.168Z,26.37
2023-02-06T17:57:56.771Z,14.00
2023-02-06T18:00:24.401Z,17.33
2023-02-06T18:02:52.458Z,14.47
2023-02-06T18:05:20.102Z,21.67
2023-02-06T18:07:49.583Z,18.03
2023-02-06T18:10:20.646Z,16.27
2023-02-06T18:12:48.305Z,15.53
2023-02-06T18:15:15.491Z,19.67
2023-02-06T18:17:44.514Z,17.90
2023-02-06T18:20:12.456Z,18.47
2023-02-06T18:22:41.395Z,15.07
2023-02-06T18:25:13.308Z,17.17
2023-02-06T18:27:41.235Z,27.77
2023-02-06T18:30:09.451Z,25.73
2023-02-06T18:32:38.146Z,27.73
2023-02-06T18:35:08.176Z,27.00
2023-02-06T18:37:37.859Z,26.87
2023-02-06T18:40:07.000Z,25.27
2023-02-06T18:42:54.124Z,18.13
2023-02-06T18:45:23.152Z,20.57
2023-02-06T18:47:51.893Z,18.83
2023-02-06T18:50:24.286Z,18.60
2023-02-06T18:52:51.596Z,15.83
2023-02-06T18:55:19.186Z,18.43
2023-02-06T18:57:46.933Z,24.63
2023-02-06T19:00:15.621Z,16.77
2023-02-06T19:02:42.606Z,20.20
2023-02-06T19:05:09.974Z,17.80
2023-02-06T19:07:39.940Z,19.30
2023-02-06T19:10:10.720Z,21.57
2023-02-06T19:12:38.728Z,17.53
2023-02-06T19:15:06.101Z,18.07
2023-02-06T19:17:34.009Z,16.13
2023-02-06T19:20:01.221Z,14.87
2023-02-06T19:22:28.189Z,20.40
2023-02-06T19:24:56.512Z,15.23
2023-02-06T19:27:23.736Z,18.87
2023-02-06T19:29:50.509Z,15.40
2023-02-06T19:32:17.430Z,18.83
2023-02-06T19:34:45.333Z,16.97
2023-02-06T19:37:13.007Z,21.37
2023-02-06T19:39:40.707Z,20.77
2023-02-06T19:42:09.713Z,25.40
2023-02-06T19:44:36.743Z,25.80
2023-02-06T19:47:04.726Z,21.97
2023-02-06T19:49:31.712Z,21.67
2023-02-06T19:51:58.662Z,19.13
2023-02-06T19:54:25.735Z,34.60
2023-02-06T19:56:52.682Z,32.37
2023-02-06T19:59:22.643Z,25.70
2023-02-06T20:01:55.397Z,34.47
2023-02-06T20:04:25.054Z,26.07
2023-02-06T20:06:52.468Z,30.60
2023-02-06T20:09:20.958Z,24.27
2023-02-06T20:11:49.326Z,24.37
2023-02-06T20:14:17.501Z,27.60
2023-02-06T20:16:45.112Z,32.20
2023-02-06T20:19:16.174Z,36.47
2023-02-06T20:21:45.274Z,38.07
2023-02-06T20:24:15.043Z,42.50
2023-02-06T20:26:43.000Z,38.37
2023-02-06T20:29:10.570Z,34.17
2023-02-06T20:31:37.692Z,34.23
2023-02-06T20:34:05.652Z,26.17
2023-02-06T20:36:32.418Z,35.17
2023-02-06T20:39:00.270Z,22.03
2023-02-06T20:41:30.106Z,24.67
2023-02-06T20:43:58.715Z,33.27
2023-02-06T20:46:26.631Z,27.67
2023-02-06T20:48:56.622Z,26.20
2023-02-06T20:51:24.306Z,20.87
2023-02-06T20:53:51.428Z,27.03
2023-02-06T20:56:19.466Z,29.23
2023-02-06T20:58:46.973Z,20.83
2023-02-06T21:01:22.261Z,26.20
2023-02-06T21:03:49.754Z,24.17
2023-02-06T21:06:16.556Z,23.50
2023-02-06T21:08:46.002Z,27.40
2023-02-06T21:11:13.173Z,22.07
2023-02-06T21:13:41.162Z,35.13
2023-02-06T21:16:09.477Z,19.87
2023-02-06T21:18:38.121Z,18.47
2023-02-06T21:21:13.689Z,18.70
2023-02-06T21:23:42.437Z,34.63
2023-02-06T21:26:11.605Z,23.77
2023-02-06T21:28:39.538Z,20.57
2023-02-06T21:31:09.151Z,27.33
2023-02-06T21:33:37.175Z,27.50
2023-02-06T21:36:07.069Z,19.90
2023-02-06T21:38:37.532Z,18.67
2023-02-06T21:41:12.634Z,20.43
2023-02-06T21:43:39.650Z,20.87
2023-02-06T21:46:07.003Z,19.97
2023-02-06T21:48:34.640Z,20.97
2023-02-06T21:51:14.950Z,24.10
2023-02-06T21:53:45.217Z,20.60
2023-02-06T21:59:30.648Z,24.00
2023-02-06T22:01:57.695Z,29.90
2023-02-06T22:04:29.971Z,30.83
2023-02-06T22:06:59.647Z,25.20
2023-02-06T22:12:25.495Z,23.07
2023-02-06T22:15:02.371Z,20.85
2023-02-06T22:17:32.030Z,20.70
2023-02-06T22:20:01.330Z,19.73
2023-02-06T23:39:25.366Z,27.10
2023-02-06T23:41:52.371Z,23.53
2023-02-06T23:44:19.398Z,24.63
2023-02-06T23:46:46.279Z,25.47
2023-02-06T23:49:13.068Z,29.30
2023-02-06T23:51:39.971Z,21.13
2023-02-06T23:54:07.972Z,23.87
2023-02-06T23:56:35.117Z,20.03
2023-02-06T23:59:02.729Z,18.53
